sensor_id;sensor_type;location;lat;lon;timestamp;P1;durP1;ratioP1;P2;durP2;ratioP2
24547;SDS011;12713;51.624;4.924;2023-07-31T00:02:07;30.25;;;11.32;;
24547;SDS011;12713;51.624;4.924;2023-07-31T00:04:33;36.13;;;10.55;;
24547;SDS011;12713;51.624;4.924;2023-07-31T00:06:59;27.42;;;10.15;;
24547;SDS011;12713;51.624;4.924;2023-07-31T00:09:25;29.30;;;8.63;;
24547;SDS011;12713;51.624;4.924;2023-07-31T00:11:51;27.48;;;10.43;;
24547;SDS011;12713;51.624;4.924;2023-07-31T00:14:17;34.30;;;10.50;;
24547;SDS011;12713;51.624;4.924;2023-07-31T00:16:43;25.60;;;9.63;;
24547;SDS011;12713;51.624;4.924;2023-07-31T00:19:12;31.10;;;11.00;;
24547;SDS011;12713;51.624;4.924;2023-07-31T00:21:38;31.33;;;9.57;;
24547;SDS011;12713;51.624;4.924;2023-07-31T00:24:04;31.67;;;10.48;;
24547;SDS011;12713;51.624;4.924;2023-07-31T00:26:30;34.95;;;10.57;;
24547;SDS011;12713;51.624;4.924;2023-07-31T00:28:56;25.58;;;9.55;;
24547;SDS011;12713;51.624;4.924;2023-07-31T00:31:22;32.00;;;10.32;;
24547;SDS011;12713;51.624;4.924;2023-07-31T00:33:48;29.73;;;8.95;;
24547;SDS011;12713;51.624;4.924;2023-07-31T00:36:14;24.77;;;9.30;;
24547;SDS011;12713;51.624;4.924;2023-07-31T00:38:40;22.75;;;9.25;;
24547;SDS011;12713;51.624;4.924;2023-07-31T00:41:06;24.98;;;8.60;;
24547;SDS011;12713;51.624;4.924;2023-07-31T00:43:32;24.83;;;9.45;;
24547;SDS011;12713;51.624;4.924;2023-07-31T00:45:58;24.05;;;9.20;;
24547;SDS011;12713;51.624;4.924;2023-07-31T00:48:24;27.50;;;9.05;;
24547;SDS011;12713;51.624;4.924;2023-07-31T00:50:51;18.40;;;8.57;;
24547;SDS011;12713;51.624;4.924;2023-07-31T00:53:17;21.48;;;9.05;;
24547;SDS011;12713;51.624;4.924;2023-07-31T00:55:43;21.70;;;8.68;;
24547;SDS011;12713;51.624;4.924;2023-07-31T00:58:10;25.50;;;8.85;;
24547;SDS011;12713;51.624;4.924;2023-07-31T01:00:36;26.20;;;8.40;;
24547;SDS011;12713;51.624;4.924;2023-07-31T01:03:02;27.65;;;8.27;;
24547;SDS011;12713;51.624;4.924;2023-07-31T01:10:57;19.73;;;8.32;;
24547;SDS011;12713;51.624;4.924;2023-07-31T01:13:26;24.55;;;8.25;;
24547;SDS011;12713;51.624;4.924;2023-07-31T01:15:52;24.48;;;8.05;;
24547;SDS011;12713;51.624;4.924;2023-07-31T01:18:18;26.20;;;9.13;;
24547;SDS011;12713;51.624;4.924;2023-07-31T01:20:44;23.92;;;8.30;;
24547;SDS011;12713;51.624;4.924;2023-07-31T01:23:35;25.83;;;8.43;;
24547;SDS011;12713;51.624;4.924;2023-07-31T01:26:07;29.50;;;8.40;;
24547;SDS011;12713;51.624;4.924;2023-07-31T01:31:07;28.27;;;8.73;;
24547;SDS011;12713;51.624;4.924;2023-07-31T01:33:33;29.42;;;9.15;;
24547;SDS011;12713;51.624;4.924;2023-07-31T01:36:00;34.72;;;9.05;;
24547;SDS011;12713;51.624;4.924;2023-07-31T01:38:26;23.42;;;9.40;;
24547;SDS011;12713;51.624;4.924;2023-07-31T01:40:52;26.73;;;8.52;;
24547;SDS011;12713;51.624;4.924;2023-07-31T01:43:19;30.45;;;9.32;;
24547;SDS011;12713;51.624;4.924;2023-07-31T01:45:45;29.92;;;8.20;;
24547;SDS011;12713;51.624;4.924;2023-07-31T01:48:11;28.60;;;9.18;;
24547;SDS011;12713;51.624;4.924;2023-07-31T01:50:37;24.65;;;7.88;;
24547;SDS011;12713;51.624;4.924;2023-07-31T01:53:03;28.83;;;8.70;;
24547;SDS011;12713;51.624;4.924;2023-07-31T01:55:29;23.88;;;8.63;;
24547;SDS011;12713;51.624;4.924;2023-07-31T01:57:58;28.67;;;9.40;;
24547;SDS011;12713;51.624;4.924;2023-07-31T02:03:30;24.40;;;8.18;;
24547;SDS011;12713;51.624;4.924;2023-07-31T02:06:00;24.63;;;8.55;;
24547;SDS011;12713;51.624;4.924;2023-07-31T02:11:18;23.00;;;9.32;;
24547;SDS011;12713;51.624;4.924;2023-07-31T02:13:44;24.30;;;8.98;;
24547;SDS011;12713;51.624;4.924;2023-07-31T02:16:10;22.25;;;9.63;;
24547;SDS011;12713;51.624;4.924;2023-07-31T02:18:36;23.35;;;8.48;;
24547;SDS011;12713;51.624;4.924;2023-07-31T02:21:02;23.02;;;8.10;;
24547;SDS011;12713;51.624;4.924;2023-07-31T02:23:28;24.00;;;8.40;;
24547;SDS011;12713;51.624;4.924;2023-07-31T02:25:54;22.67;;;8.43;;
24547;SDS011;12713;51.624;4.924;2023-07-31T02:28:20;24.63;;;8.73;;
24547;SDS011;12713;51.624;4.924;2023-07-31T02:30:46;23.52;;;8.40;;
24547;SDS011;12713;51.624;4.924;2023-07-31T02:33:12;20.95;;;8.82;;
24547;SDS011;12713;51.624;4.924;2023-07-31T02:35:38;23.33;;;8.48;;
24547;SDS011;12713;51.624;4.924;2023-07-31T02:38:04;27.38;;;8.70;;
24547;SDS011;12713;51.624;4.924;2023-07-31T02:40:30;22.10;;;8.15;;
24547;SDS011;12713;51.624;4.924;2023-07-31T02:42:56;25.17;;;7.93;;
24547;SDS011;12713;51.624;4.924;2023-07-31T02:45:22;25.35;;;8.85;;
24547;SDS011;12713;51.624;4.924;2023-07-31T02:47:48;16.90;;;8.82;;
24547;SDS011;12713;51.624;4.924;2023-07-31T02:50:14;28.20;;;8.63;;
24547;SDS011;12713;51.624;4.924;2023-07-31T02:52:43;23.63;;;8.05;;
24547;SDS011;12713;51.624;4.924;2023-07-31T02:55:09;24.70;;;8.57;;
24547;SDS011;12713;51.624;4.924;2023-07-31T02:57:35;24.35;;;9.07;;
24547;SDS011;12713;51.624;4.924;2023-07-31T03:00:01;24.30;;;8.93;;
24547;SDS011;12713;51.624;4.924;2023-07-31T03:02:31;20.20;;;8.25;;
24547;SDS011;12713;51.624;4.924;2023-07-31T03:04:57;22.52;;;8.88;;
24547;SDS011;12713;51.624;4.924;2023-07-31T03:07:23;22.35;;;7.35;;
24547;SDS011;12713;51.624;4.924;2023-07-31T03:09:49;30.42;;;8.70;;
24547;SDS011;12713;51.624;4.924;2023-07-31T03:12:15;22.60;;;7.68;;
24547;SDS011;12713;51.624;4.924;2023-07-31T03:14:41;25.00;;;9.10;;
24547;SDS011;12713;51.624;4.924;2023-07-31T03:17:07;19.08;;;8.05;;
24547;SDS011;12713;51.624;4.924;2023-07-31T03:19:33;20.15;;;7.30;;
24547;SDS011;12713;51.624;4.924;2023-07-31T03:21:59;26.52;;;8.85;;
24547;SDS011;12713;51.624;4.924;2023-07-31T03:24:26;16.15;;;7.18;;
24547;SDS011;12713;51.624;4.924;2023-07-31T03:26:55;22.17;;;8.18;;
24547;SDS011;12713;51.624;4.924;2023-07-31T03:29:21;21.25;;;7.68;;
24547;SDS011;12713;51.624;4.924;2023-07-31T03:31:47;20.55;;;7.65;;
24547;SDS011;12713;51.624;4.924;2023-07-31T03:34:13;21.85;;;8.30;;
24547;SDS011;12713;51.624;4.924;2023-07-31T03:36:42;22.40;;;7.78;;
24547;SDS011;12713;51.624;4.924;2023-07-31T03:39:11;22.17;;;8.23;;
24547;SDS011;12713;51.624;4.924;2023-07-31T03:41:40;25.98;;;7.97;;
24547;SDS011;12713;51.624;4.924;2023-07-31T03:44:06;19.98;;;8.10;;
24547;SDS011;12713;51.624;4.924;2023-07-31T03:46:32;21.85;;;7.93;;
24547;SDS011;12713;51.624;4.924;2023-07-31T03:48:59;26.25;;;7.95;;
24547;SDS011;12713;51.624;4.924;2023-07-31T03:51:25;23.33;;;8.30;;
24547;SDS011;12713;51.624;4.924;2023-07-31T03:53:51;21.58;;;8.20;;
24547;SDS011;12713;51.624;4.924;2023-07-31T03:56:17;23.13;;;7.30;;
24547;SDS011;12713;51.624;4.924;2023-07-31T03:58:43;18.77;;;8.15;;
24547;SDS011;12713;51.624;4.924;2023-07-31T04:01:09;21.25;;;8.02;;
24547;SDS011;12713;51.624;4.924;2023-07-31T04:03:35;18.92;;;7.40;;
24547;SDS011;12713;51.624;4.924;2023-07-31T04:06:01;27.08;;;8.20;;
24547;SDS011;12713;51.624;4.924;2023-07-31T04:08:29;16.80;;;7.50;;
24547;SDS011;12713;51.624;4.924;2023-07-31T04:10:55;20.35;;;7.85;;
24547;SDS011;12713;51.624;4.924;2023-07-31T04:13:23;16.35;;;8.27;;
24547;SDS011;12713;51.624;4.924;2023-07-31T04:15:52;25.45;;;8.68;;
24547;SDS011;12713;51.624;4.924;2023-07-31T04:18:19;21.00;;;8.05;;
24547;SDS011;12713;51.624;4.924;2023-07-31T04:20:45;25.15;;;8.57;;
24547;SDS011;12713;51.624;4.924;2023-07-31T04:23:11;18.90;;;7.78;;
24547;SDS011;12713;51.624;4.924;2023-07-31T04:25:37;20.50;;;7.32;;
24547;SDS011;12713;51.624;4.924;2023-07-31T04:28:03;18.17;;;7.25;;
24547;SDS011;12713;51.624;4.924;2023-07-31T04:30:29;23.83;;;8.15;;
24547;SDS011;12713;51.624;4.924;2023-07-31T04:32:55;18.52;;;7.78;;
24547;SDS011;12713;51.624;4.924;2023-07-31T04:35:21;21.00;;;7.78;;
24547;SDS011;12713;51.624;4.924;2023-07-31T04:37:47;19.73;;;8.25;;
24547;SDS011;12713;51.624;4.924;2023-07-31T04:40:14;20.10;;;7.18;;
24547;SDS011;12713;51.624;4.924;2023-07-31T04:42:40;22.42;;;7.97;;
24547;SDS011;12713;51.624;4.924;2023-07-31T04:45:07;18.10;;;7.20;;
24547;SDS011;12713;51.624;4.924;2023-07-31T04:47:33;24.85;;;7.43;;
24547;SDS011;12713;51.624;4.924;2023-07-31T04:49:59;21.13;;;7.65;;
24547;SDS011;12713;51.624;4.924;2023-07-31T04:52:25;22.65;;;7.60;;
24547;SDS011;12713;51.624;4.924;2023-07-31T04:54:51;19.70;;;8.18;;
24547;SDS011;12713;51.624;4.924;2023-07-31T04:57:17;22.05;;;7.15;;
24547;SDS011;12713;51.624;4.924;2023-07-31T04:59:46;17.52;;;7.70;;
24547;SDS011;12713;51.624;4.924;2023-07-31T05:02:12;21.45;;;7.78;;
24547;SDS011;12713;51.624;4.924;2023-07-31T05:04:38;24.23;;;7.28;;
24547;SDS011;12713;51.624;4.924;2023-07-31T05:07:04;19.02;;;7.72;;
24547;SDS011;12713;51.624;4.924;2023-07-31T05:09:30;22.38;;;7.43;;
24547;SDS011;12713;51.624;4.924;2023-07-31T05:11:56;20.45;;;8.05;;
24547;SDS011;12713;51.624;4.924;2023-07-31T05:14:22;23.13;;;7.97;;
24547;SDS011;12713;51.624;4.924;2023-07-31T05:16:48;26.60;;;8.50;;
24547;SDS011;12713;51.624;4.924;2023-07-31T05:19:14;25.48;;;8.32;;
24547;SDS011;12713;51.624;4.924;2023-07-31T05:21:40;25.55;;;7.90;;
24547;SDS011;12713;51.624;4.924;2023-07-31T05:24:06;28.70;;;9.52;;
24547;SDS011;12713;51.624;4.924;2023-07-31T05:26:32;35.85;;;10.52;;
24547;SDS011;12713;51.624;4.924;2023-07-31T05:29:02;19.98;;;8.60;;
24547;SDS011;12713;51.624;4.924;2023-07-31T05:31:28;21.30;;;7.70;;
24547;SDS011;12713;51.624;4.924;2023-07-31T05:33:57;21.77;;;7.40;;
24547;SDS011;12713;51.624;4.924;2023-07-31T05:36:23;20.35;;;7.65;;
24547;SDS011;12713;51.624;4.924;2023-07-31T05:38:49;20.90;;;7.45;;
24547;SDS011;12713;51.624;4.924;2023-07-31T05:41:16;14.35;;;6.30;;
24547;SDS011;12713;51.624;4.924;2023-07-31T05:43:44;17.75;;;7.05;;
24547;SDS011;12713;51.624;4.924;2023-07-31T05:46:10;15.88;;;6.93;;
24547;SDS011;12713;51.624;4.924;2023-07-31T05:48:37;14.15;;;6.70;;
24547;SDS011;12713;51.624;4.924;2023-07-31T05:51:03;14.55;;;6.47;;
24547;SDS011;12713;51.624;4.924;2023-07-31T05:53:29;17.45;;;7.45;;
24547;SDS011;12713;51.624;4.924;2023-07-31T05:55:58;17.77;;;6.78;;
24547;SDS011;12713;51.624;4.924;2023-07-31T05:58:24;14.48;;;7.63;;
24547;SDS011;12713;51.624;4.924;2023-07-31T06:00:50;13.02;;;6.80;;
24547;SDS011;12713;51.624;4.924;2023-07-31T06:03:17;17.52;;;7.43;;
24547;SDS011;12713;51.624;4.924;2023-07-31T06:05:46;17.73;;;7.65;;
24547;SDS011;12713;51.624;4.924;2023-07-31T06:08:12;13.50;;;6.28;;
24547;SDS011;12713;51.624;4.924;2023-07-31T06:10:38;16.73;;;6.93;;
24547;SDS011;12713;51.624;4.924;2023-07-31T06:13:04;13.80;;;7.15;;
24547;SDS011;12713;51.624;4.924;2023-07-31T06:15:30;13.40;;;6.22;;
24547;SDS011;12713;51.624;4.924;2023-07-31T06:17:56;11.90;;;6.35;;
24547;SDS011;12713;51.624;4.924;2023-07-31T06:20:22;11.80;;;6.55;;
24547;SDS011;12713;51.624;4.924;2023-07-31T06:22:51;17.73;;;6.95;;
24547;SDS011;12713;51.624;4.924;2023-07-31T06:25:20;10.45;;;6.57;;
24547;SDS011;12713;51.624;4.924;2023-07-31T06:27:49;13.75;;;6.18;;
24547;SDS011;12713;51.624;4.924;2023-07-31T06:30:15;11.80;;;6.43;;
24547;SDS011;12713;51.624;4.924;2023-07-31T06:32:44;11.38;;;6.55;;
24547;SDS011;12713;51.624;4.924;2023-07-31T06:35:10;10.55;;;7.15;;
24547;SDS011;12713;51.624;4.924;2023-07-31T06:37:36;15.35;;;6.38;;
24547;SDS011;12713;51.624;4.924;2023-07-31T06:40:05;11.32;;;6.65;;
24547;SDS011;12713;51.624;4.924;2023-07-31T06:42:32;14.13;;;5.97;;
24547;SDS011;12713;51.624;4.924;2023-07-31T06:44:59;11.05;;;6.47;;
24547;SDS011;12713;51.624;4.924;2023-07-31T06:47:25;12.15;;;6.00;;
24547;SDS011;12713;51.624;4.924;2023-07-31T06:49:51;13.07;;;6.05;;
24547;SDS011;12713;51.624;4.924;2023-07-31T06:52:17;7.97;;;6.13;;
24547;SDS011;12713;51.624;4.924;2023-07-31T06:54:44;16.17;;;7.15;;
24547;SDS011;12713;51.624;4.924;2023-07-31T06:57:10;9.23;;;5.65;;
24547;SDS011;12713;51.624;4.924;2023-07-31T06:59:36;11.00;;;6.25;;
24547;SDS011;12713;51.624;4.924;2023-07-31T07:02:02;7.68;;;5.63;;
24547;SDS011;12713;51.624;4.924;2023-07-31T07:04:29;11.52;;;6.68;;
24547;SDS011;12713;51.624;4.924;2023-07-31T07:06:55;9.02;;;5.72;;
24547;SDS011;12713;51.624;4.924;2023-07-31T07:09:21;11.32;;;5.63;;
24547;SDS011;12713;51.624;4.924;2023-07-31T07:11:47;10.05;;;5.57;;
24547;SDS011;12713;51.624;4.924;2023-07-31T07:14:13;6.97;;;5.28;;
24547;SDS011;12713;51.624;4.924;2023-07-31T07:16:39;7.10;;;5.63;;
24547;SDS011;12713;51.624;4.924;2023-07-31T07:19:06;7.53;;;6.10;;
24547;SDS011;12713;51.624;4.924;2023-07-31T07:21:32;8.93;;;5.70;;
24547;SDS011;12713;51.624;4.924;2023-07-31T07:23:58;6.70;;;5.90;;
24547;SDS011;12713;51.624;4.924;2023-07-31T07:26:24;10.48;;;6.40;;
24547;SDS011;12713;51.624;4.924;2023-07-31T07:28:50;7.45;;;6.65;;
24547;SDS011;12713;51.624;4.924;2023-07-31T07:31:16;10.80;;;6.88;;
24547;SDS011;12713;51.624;4.924;2023-07-31T07:33:42;9.15;;;7.38;;
24547;SDS011;12713;51.624;4.924;2023-07-31T07:36:08;12.60;;;8.60;;
24547;SDS011;12713;51.624;4.924;2023-07-31T07:38:34;8.77;;;7.88;;
24547;SDS011;12713;51.624;4.924;2023-07-31T07:41:01;14.40;;;8.57;;
24547;SDS011;12713;51.624;4.924;2023-07-31T07:43:27;12.05;;;8.40;;
24547;SDS011;12713;51.624;4.924;2023-07-31T07:45:53;9.88;;;8.50;;
24547;SDS011;12713;51.624;4.924;2023-07-31T07:48:22;12.57;;;9.80;;
24547;SDS011;12713;51.624;4.924;2023-07-31T07:50:50;12.90;;;9.63;;
24547;SDS011;12713;51.624;4.924;2023-07-31T07:53:16;13.38;;;9.13;;
24547;SDS011;12713;51.624;4.924;2023-07-31T07:55:42;14.32;;;10.80;;
24547;SDS011;12713;51.624;4.924;2023-07-31T07:58:08;12.32;;;10.27;;
24547;SDS011;12713;51.624;4.924;2023-07-31T08:00:34;15.23;;;10.70;;
24547;SDS011;12713;51.624;4.924;2023-07-31T08:03:00;13.82;;;10.63;;
24547;SDS011;12713;51.624;4.924;2023-07-31T08:05:26;14.95;;;10.70;;
24547;SDS011;12713;51.624;4.924;2023-07-31T08:07:55;13.60;;;10.30;;
24547;SDS011;12713;51.624;4.924;2023-07-31T08:10:21;16.80;;;11.02;;
24547;SDS011;12713;51.624;4.924;2023-07-31T08:12:47;16.10;;;10.88;;
24547;SDS011;12713;51.624;4.924;2023-07-31T08:15:13;17.88;;;10.93;;
24547;SDS011;12713;51.624;4.924;2023-07-31T08:17:42;13.55;;;10.85;;
24547;SDS011;12713;51.624;4.924;2023-07-31T08:20:08;17.92;;;12.15;;
24547;SDS011;12713;51.624;4.924;2023-07-31T08:22:34;14.98;;;11.65;;
24547;SDS011;12713;51.624;4.924;2023-07-31T08:25:00;17.13;;;11.93;;
24547;SDS011;12713;51.624;4.924;2023-07-31T08:27:26;19.08;;;12.18;;
24547;SDS011;12713;51.624;4.924;2023-07-31T08:29:52;18.02;;;12.20;;
24547;SDS011;12713;51.624;4.924;2023-07-31T08:32:18;21.40;;;12.57;;
24547;SDS011;12713;51.624;4.924;2023-07-31T08:34:44;18.35;;;11.63;;
24547;SDS011;12713;51.624;4.924;2023-07-31T08:37:13;19.27;;;13.02;;
24547;SDS011;12713;51.624;4.924;2023-07-31T08:39:39;18.55;;;12.10;;
24547;SDS011;12713;51.624;4.924;2023-07-31T08:42:09;17.88;;;11.88;;
24547;SDS011;12713;51.624;4.924;2023-07-31T08:44:35;15.73;;;12.73;;
24547;SDS011;12713;51.624;4.924;2023-07-31T08:47:01;17.13;;;11.15;;
24547;SDS011;12713;51.624;4.924;2023-07-31T08:49:27;17.92;;;11.85;;
24547;SDS011;12713;51.624;4.924;2023-07-31T08:51:54;16.65;;;11.20;;
24547;SDS011;12713;51.624;4.924;2023-07-31T08:54:23;16.85;;;10.73;;
24547;SDS011;12713;51.624;4.924;2023-07-31T08:56:49;19.20;;;10.45;;
24547;SDS011;12713;51.624;4.924;2023-07-31T08:59:16;14.63;;;10.02;;
24547;SDS011;12713;51.624;4.924;2023-07-31T09:01:43;13.48;;;9.93;;
24547;SDS011;12713;51.624;4.924;2023-07-31T09:04:09;17.65;;;11.27;;
24547;SDS011;12713;51.624;4.924;2023-07-31T09:06:43;14.13;;;10.25;;
24547;SDS011;12713;51.624;4.924;2023-07-31T09:09:13;16.45;;;10.15;;
24547;SDS011;12713;51.624;4.924;2023-07-31T09:11:40;16.67;;;9.85;;
24547;SDS011;12713;51.624;4.924;2023-07-31T09:14:08;14.70;;;9.98;;
24547;SDS011;12713;51.624;4.924;2023-07-31T09:16:57;12.90;;;9.32;;
24547;SDS011;12713;51.624;4.924;2023-07-31T09:21:54;13.40;;;8.93;;
24547;SDS011;12713;51.624;4.924;2023-07-31T09:24:27;13.35;;;9.10;;
24547;SDS011;12713;51.624;4.924;2023-07-31T09:26:54;14.18;;;8.75;;
24547;SDS011;12713;51.624;4.924;2023-07-31T09:29:23;12.60;;;9.40;;
24547;SDS011;12713;51.624;4.924;2023-07-31T09:31:50;11.32;;;7.68;;
24547;SDS011;12713;51.624;4.924;2023-07-31T09:34:16;12.02;;;7.20;;
24547;SDS011;12713;51.624;4.924;2023-07-31T09:36:42;10.32;;;6.70;;
24547;SDS011;12713;51.624;4.924;2023-07-31T09:39:09;10.70;;;6.57;;
24547;SDS011;12713;51.624;4.924;2023-07-31T09:41:37;9.68;;;7.38;;
24547;SDS011;12713;51.624;4.924;2023-07-31T09:44:03;8.05;;;6.05;;
24547;SDS011;12713;51.624;4.924;2023-07-31T09:46:38;9.80;;;7.15;;
24547;SDS011;12713;51.624;4.924;2023-07-31T09:49:45;13.18;;;7.07;;
24547;SDS011;12713;51.624;4.924;2023-07-31T09:52:19;15.00;;;6.75;;
24547;SDS011;12713;51.624;4.924;2023-07-31T09:55:14;10.18;;;6.40;;
24547;SDS011;12713;51.624;4.924;2023-07-31T10:10:20;11.65;;;5.65;;
24547;SDS011;12713;51.624;4.924;2023-07-31T10:13:00;5.57;;;5.03;;
24547;SDS011;12713;51.624;4.924;2023-07-31T10:16:04;11.13;;;5.35;;
24547;SDS011;12713;51.624;4.924;2023-07-31T10:21:53;6.38;;;4.95;;
24547;SDS011;12713;51.624;4.924;2023-07-31T10:24:22;7.60;;;5.45;;
24547;SDS011;12713;51.624;4.924;2023-07-31T10:26:48;8.40;;;4.93;;
24547;SDS011;12713;51.624;4.924;2023-07-31T10:29:15;6.80;;;5.28;;
24547;SDS011;12713;51.624;4.924;2023-07-31T10:31:42;9.63;;;5.50;;
24547;SDS011;12713;51.624;4.924;2023-07-31T10:34:09;7.72;;;5.13;;
24547;SDS011;12713;51.624;4.924;2023-07-31T10:36:35;8.98;;;4.80;;
24547;SDS011;12713;51.624;4.924;2023-07-31T10:39:03;5.85;;;4.43;;
24547;SDS011;12713;51.624;4.924;2023-07-31T10:41:29;7.25;;;4.97;;
24547;SDS011;12713;51.624;4.924;2023-07-31T10:43:59;6.68;;;4.80;;
24547;SDS011;12713;51.624;4.924;2023-07-31T10:46:25;8.18;;;5.18;;
24547;SDS011;12713;51.624;4.924;2023-07-31T10:48:57;5.18;;;4.32;;
24547;SDS011;12713;51.624;4.924;2023-07-31T10:51:24;8.90;;;4.93;;
24547;SDS011;12713;51.624;4.924;2023-07-31T10:54:10;6.00;;;5.15;;
24547;SDS011;12713;51.624;4.924;2023-07-31T10:56:37;7.07;;;4.75;;
24547;SDS011;12713;51.624;4.924;2023-07-31T10:59:04;8.00;;;5.50;;
24547;SDS011;12713;51.624;4.924;2023-07-31T11:04:29;7.28;;;5.30;;
24547;SDS011;12713;51.624;4.924;2023-07-31T11:12:13;5.93;;;4.95;;
24547;SDS011;12713;51.624;4.924;2023-07-31T11:18:01;7.18;;;5.80;;
24547;SDS011;12713;51.624;4.924;2023-07-31T11:20:31;10.98;;;6.75;;
24547;SDS011;12713;51.624;4.924;2023-07-31T11:23:01;8.65;;;6.22;;
24547;SDS011;12713;51.624;4.924;2023-07-31T11:25:28;6.60;;;5.90;;
24547;SDS011;12713;51.624;4.924;2023-07-31T11:28:16;8.38;;;6.45;;
24547;SDS011;12713;51.624;4.924;2023-07-31T11:36:30;8.77;;;5.57;;
24547;SDS011;12713;51.624;4.924;2023-07-31T11:39:05;9.15;;;5.40;;
24547;SDS011;12713;51.624;4.924;2023-07-31T11:41:34;7.15;;;5.93;;
24547;SDS011;12713;51.624;4.924;2023-07-31T11:44:04;7.68;;;5.40;;
24547;SDS011;12713;51.624;4.924;2023-07-31T11:46:33;8.88;;;5.72;;
24547;SDS011;12713;51.624;4.924;2023-07-31T11:49:19;9.13;;;6.20;;
24547;SDS011;12713;51.624;4.924;2023-07-31T11:51:45;8.60;;;6.85;;
24547;SDS011;12713;51.624;4.924;2023-07-31T11:54:11;9.85;;;6.78;;
24547;SDS011;12713;51.624;4.924;2023-07-31T11:56:38;14.88;;;7.50;;
24547;SDS011;12713;51.624;4.924;2023-07-31T11:59:05;12.32;;;7.55;;
24547;SDS011;12713;51.624;4.924;2023-07-31T12:04:30;9.55;;;8.25;;
24547;SDS011;12713;51.624;4.924;2023-07-31T12:06:56;10.48;;;7.60;;
24547;SDS011;12713;51.624;4.924;2023-07-31T12:09:28;14.27;;;9.15;;
24547;SDS011;12713;51.624;4.924;2023-07-31T12:11:54;12.88;;;8.90;;
24547;SDS011;12713;51.624;4.924;2023-07-31T12:14:21;12.68;;;9.63;;
24547;SDS011;12713;51.624;4.924;2023-07-31T12:16:47;13.93;;;9.93;;
24547;SDS011;12713;51.624;4.924;2023-07-31T12:19:13;11.15;;;9.10;;
24547;SDS011;12713;51.624;4.924;2023-07-31T12:21:39;12.77;;;9.35;;
24547;SDS011;12713;51.624;4.924;2023-07-31T12:24:05;12.50;;;9.80;;
24547;SDS011;12713;51.624;4.924;2023-07-31T12:26:35;12.45;;;9.73;;
24547;SDS011;12713;51.624;4.924;2023-07-31T12:29:01;14.25;;;10.27;;
24547;SDS011;12713;51.624;4.924;2023-07-31T12:31:27;12.20;;;9.38;;
24547;SDS011;12713;51.624;4.924;2023-07-31T12:33:54;14.35;;;10.10;;
24547;SDS011;12713;51.624;4.924;2023-07-31T12:36:22;15.95;;;10.90;;
24547;SDS011;12713;51.624;4.924;2023-07-31T12:38:49;13.52;;;10.35;;
24547;SDS011;12713;51.624;4.924;2023-07-31T12:41:15;14.90;;;11.23;;
24547;SDS011;12713;51.624;4.924;2023-07-31T12:43:43;14.07;;;10.68;;
24547;SDS011;12713;51.624;4.924;2023-07-31T12:46:09;13.23;;;10.02;;
24547;SDS011;12713;51.624;4.924;2023-07-31T12:48:36;15.93;;;10.75;;
24547;SDS011;12713;51.624;4.924;2023-07-31T12:51:02;19.98;;;11.82;;
24547;SDS011;12713;51.624;4.924;2023-07-31T12:53:28;14.60;;;10.18;;
24547;SDS011;12713;51.624;4.924;2023-07-31T12:55:55;16.98;;;9.60;;
24547;SDS011;12713;51.624;4.924;2023-07-31T12:58:21;13.70;;;9.18;;
24547;SDS011;12713;51.624;4.924;2023-07-31T13:00:47;14.27;;;9.90;;
24547;SDS011;12713;51.624;4.924;2023-07-31T13:03:16;15.73;;;10.90;;
24547;SDS011;12713;51.624;4.924;2023-07-31T13:05:42;16.20;;;9.60;;
24547;SDS011;12713;51.624;4.924;2023-07-31T13:08:08;16.10;;;8.82;;
24547;SDS011;12713;51.624;4.924;2023-07-31T13:10:47;14.95;;;8.40;;
24547;SDS011;12713;51.624;4.924;2023-07-31T13:13:13;17.58;;;9.63;;
24547;SDS011;12713;51.624;4.924;2023-07-31T13:15:39;14.60;;;9.30;;
24547;SDS011;12713;51.624;4.924;2023-07-31T13:18:05;12.60;;;8.27;;
24547;SDS011;12713;51.624;4.924;2023-07-31T13:20:31;16.38;;;8.40;;
24547;SDS011;12713;51.624;4.924;2023-07-31T13:23:00;18.42;;;8.93;;
24547;SDS011;12713;51.624;4.924;2023-07-31T13:25:26;14.43;;;8.77;;
24547;SDS011;12713;51.624;4.924;2023-07-31T13:27:53;13.05;;;8.73;;
24547;SDS011;12713;51.624;4.924;2023-07-31T13:30:19;16.15;;;9.75;;
24547;SDS011;12713;51.624;4.924;2023-07-31T13:32:45;12.68;;;8.40;;
24547;SDS011;12713;51.624;4.924;2023-07-31T13:35:11;11.63;;;7.68;;
24547;SDS011;12713;51.624;4.924;2023-07-31T13:37:40;15.85;;;8.93;;
24547;SDS011;12713;51.624;4.924;2023-07-31T13:40:06;13.30;;;8.77;;
24547;SDS011;12713;51.624;4.924;2023-07-31T13:42:32;15.80;;;10.70;;
24547;SDS011;12713;51.624;4.924;2023-07-31T13:44:58;13.68;;;8.95;;
24547;SDS011;12713;51.624;4.924;2023-07-31T13:47:28;13.02;;;8.65;;
24547;SDS011;12713;51.624;4.924;2023-07-31T13:49:54;15.77;;;9.55;;
24547;SDS011;12713;51.624;4.924;2023-07-31T13:52:20;14.70;;;9.13;;
24547;SDS011;12713;51.624;4.924;2023-07-31T13:54:55;16.23;;;9.77;;
24547;SDS011;12713;51.624;4.924;2023-07-31T13:57:21;14.18;;;8.73;;
24547;SDS011;12713;51.624;4.924;2023-07-31T13:59:55;13.02;;;8.75;;
24547;SDS011;12713;51.624;4.924;2023-07-31T14:02:22;15.80;;;9.60;;
24547;SDS011;12713;51.624;4.924;2023-07-31T14:04:48;14.65;;;8.80;;
24547;SDS011;12713;51.624;4.924;2023-07-31T14:07:14;12.55;;;8.48;;
24547;SDS011;12713;51.624;4.924;2023-07-31T14:09:40;21.90;;;8.90;;
24547;SDS011;12713;51.624;4.924;2023-07-31T14:12:06;17.95;;;9.27;;
24547;SDS011;12713;51.624;4.924;2023-07-31T14:14:32;19.90;;;9.80;;
24547;SDS011;12713;51.624;4.924;2023-07-31T14:16:59;12.57;;;8.07;;
24547;SDS011;12713;51.624;4.924;2023-07-31T14:19:25;15.50;;;9.45;;
24547;SDS011;12713;51.624;4.924;2023-07-31T14:21:51;18.45;;;10.10;;
24547;SDS011;12713;51.624;4.924;2023-07-31T14:24:17;16.75;;;9.32;;
24547;SDS011;12713;51.624;4.924;2023-07-31T14:26:43;14.25;;;9.00;;
24547;SDS011;12713;51.624;4.924;2023-07-31T14:29:09;14.90;;;8.98;;
24547;SDS011;12713;51.624;4.924;2023-07-31T14:31:35;15.75;;;8.63;;
24547;SDS011;12713;51.624;4.924;2023-07-31T14:34:01;14.13;;;8.68;;
24547;SDS011;12713;51.624;4.924;2023-07-31T14:36:27;17.35;;;9.13;;
24547;SDS011;12713;51.624;4.924;2023-07-31T14:38:53;12.27;;;7.93;;
24547;SDS011;12713;51.624;4.924;2023-07-31T14:41:19;10.13;;;6.35;;
24547;SDS011;12713;51.624;4.924;2023-07-31T14:43:46;10.52;;;5.70;;
24547;SDS011;12713;51.624;4.924;2023-07-31T14:46:12;10.38;;;5.88;;
24547;SDS011;12713;51.624;4.924;2023-07-31T14:48:39;8.25;;;5.30;;
24547;SDS011;12713;51.624;4.924;2023-07-31T14:51:05;10.18;;;5.40;;
24547;SDS011;12713;51.624;4.924;2023-07-31T14:53:34;12.90;;;5.63;;
24547;SDS011;12713;51.624;4.924;2023-07-31T14:56:00;11.68;;;4.97;;
24547;SDS011;12713;51.624;4.924;2023-07-31T14:58:27;6.97;;;4.65;;
24547;SDS011;12713;51.624;4.924;2023-07-31T15:00:53;11.18;;;4.30;;
24547;SDS011;12713;51.624;4.924;2023-07-31T15:03:22;8.10;;;4.45;;
24547;SDS011;12713;51.624;4.924;2023-07-31T15:05:50;7.75;;;4.28;;
24547;SDS011;12713;51.624;4.924;2023-07-31T15:08:16;7.43;;;3.92;;
24547;SDS011;12713;51.624;4.924;2023-07-31T15:10:42;6.38;;;3.60;;
24547;SDS011;12713;51.624;4.924;2023-07-31T15:13:09;8.48;;;3.80;;
24547;SDS011;12713;51.624;4.924;2023-07-31T15:15:36;5.50;;;3.30;;
24547;SDS011;12713;51.624;4.924;2023-07-31T15:18:02;7.70;;;2.95;;
24547;SDS011;12713;51.624;4.924;2023-07-31T15:20:28;3.83;;;2.50;;
24547;SDS011;12713;51.624;4.924;2023-07-31T15:22:55;5.95;;;2.90;;
24547;SDS011;12713;51.624;4.924;2023-07-31T15:25:21;5.68;;;3.05;;
24547;SDS011;12713;51.624;4.924;2023-07-31T15:27:50;4.75;;;2.40;;
24547;SDS011;12713;51.624;4.924;2023-07-31T15:30:16;4.97;;;2.10;;